createdAt,value
2018-02-07T00:00:54.133Z,67.60
2018-02-07T00:01:54.025Z,67.69
2018-02-07T00:02:53.944Z,68.07
2018-02-07T00:03:53.855Z,68.57
2018-02-07T00:04:53.782Z,68.44
2018-02-07T00:05:53.693Z,68.63
2018-02-07T00:06:53.599Z,67.97
2018-02-07T00:07:53.528Z,68.29
2018-02-07T00:08:53.432Z,68.26
2018-02-07T00:09:53.342Z,68.63
2018-02-07T00:10:53.263Z,68.44
2018-02-07T00:11:53.178Z,68.26
2018-02-07T00:12:53.088Z,68.26
2018-02-07T00:13:53.004Z,68.07
2018-02-07T00:14:52.913Z,68.35
2018-02-07T00:15:52.827Z,68.44
2018-02-07T00:16:52.746Z,68.54
2018-02-07T00:17:52.648Z,68.92
2018-02-07T00:18:52.568Z,69.20
2018-02-07T00:19:52.481Z,68.92
2018-02-07T00:20:52.399Z,68.73
2018-02-07T00:21:52.320Z,68.92
2018-02-07T00:22:52.229Z,69.01
2018-02-07T00:23:52.141Z,69.30
2018-02-07T00:24:52.056Z,69.20
2018-02-07T00:25:51.974Z,69.01
2018-02-07T00:26:51.880Z,69.11
2018-02-07T00:27:51.804Z,69.01
2018-02-07T00:28:51.727Z,69.49
2018-02-07T00:29:51.631Z,69.67
2018-02-07T00:30:51.544Z,69.96
2018-02-07T00:31:51.452Z,69.58
2018-02-07T00:32:51.386Z,70.05
2018-02-07T00:33:51.275Z,70.15
2018-02-07T00:34:51.197Z,69.58
2018-02-07T00:35:51.113Z,69.49
2018-02-07T00:36:51.030Z,69.96
2018-02-07T00:37:50.943Z,69.77
2018-02-07T00:38:50.854Z,69.67
2018-02-07T00:39:50.782Z,70.43
2018-02-07T00:40:50.680Z,70.15
2018-02-07T00:41:50.591Z,70.53
2018-02-07T00:42:50.528Z,70.90
2018-02-07T00:43:50.435Z,70.81
2018-02-07T00:44:50.348Z,70.62
2018-02-07T00:45:50.256Z,70.72
2018-02-07T00:46:50.180Z,70.72
2018-02-07T00:47:50.076Z,70.62
2018-02-07T00:48:50.011Z,70.81
2018-02-07T00:49:49.905Z,70.62
2018-02-07T00:50:49.834Z,70.72
2018-02-07T00:51:49.735Z,70.72
2018-02-07T00:52:49.661Z,70.34
2018-02-07T00:53:49.585Z,70.72
2018-02-07T00:54:49.480Z,71.19
2018-02-07T00:55:49.407Z,71.09
2018-02-07T00:56:49.309Z,71.09
2018-02-07T00:57:49.221Z,71.09
2018-02-07T00:58:49.138Z,71.00
2018-02-07T00:59:49.057Z,71.19
2018-02-07T01:00:48.954Z,71.19
2018-02-07T01:01:48.889Z,71.19
2018-02-07T01:02:48.805Z,71.56
2018-02-07T01:03:48.710Z,71.47
2018-02-07T01:04:48.634Z,71.56
2018-02-07T01:05:48.528Z,71.56
2018-02-07T01:06:48.446Z,71.47
2018-02-07T01:07:48.362Z,72.41
2018-02-07T01:08:48.279Z,71.66
2018-02-07T01:09:48.188Z,71.75
2018-02-07T01:10:48.110Z,72.32
2018-02-07T01:11:48.029Z,71.94
2018-02-07T01:12:47.933Z,72.22
2018-02-07T01:13:47.849Z,72.03
2018-02-07T01:14:47.762Z,71.94
2018-02-07T01:15:47.691Z,71.84
2018-02-07T01:16:47.581Z,71.94
2018-02-07T01:17:47.498Z,72.03
2018-02-07T01:18:47.416Z,72.51
2018-02-07T01:19:47.330Z,72.51
2018-02-07T01:20:47.249Z,72.22
2018-02-07T01:21:47.161Z,72.32
2018-02-07T01:22:47.089Z,72.51
2018-02-07T01:23:46.998Z,72.51
2018-02-07T01:24:46.898Z,72.13
2018-02-07T01:25:46.808Z,71.94
2018-02-07T01:26:46.738Z,72.41
2018-02-07T01:27:46.643Z,72.79
2018-02-07T01:28:46.561Z,72.51
2018-02-07T01:29:46.485Z,72.60
2018-02-07T01:30:46.382Z,72.88
2018-02-07T01:31:46.294Z,72.88
2018-02-07T01:32:46.212Z,72.51
2018-02-07T01:33:46.122Z,72.88
2018-02-07T01:34:46.041Z,73.64
2018-02-07T01:35:45.954Z,73.17
2018-02-07T01:36:45.875Z,73.07
2018-02-07T01:37:45.791Z,73.17
2018-02-07T01:38:45.707Z,73.55
2018-02-07T01:39:45.611Z,73.36
2018-02-07T01:40:45.526Z,73.74
2018-02-07T01:41:45.433Z,73.45
2018-02-07T01:42:45.351Z,73.83
2018-02-07T01:43:45.262Z,73.55
2018-02-07T01:44:45.179Z,73.45
2018-02-07T01:45:45.104Z,73.64
2018-02-07T01:46:45.013Z,73.64
2018-02-07T01:47:44.927Z,74.30
2018-02-07T01:48:44.842Z,73.64
2018-02-07T01:49:44.759Z,74.30
2018-02-07T01:50:44.669Z,74.49
2018-02-07T01:51:44.576Z,74.21
2018-02-07T01:52:44.487Z,74.21
2018-02-07T01:53:44.404Z,74.40
2018-02-07T01:54:44.313Z,74.30
2018-02-07T01:55:44.236Z,74.30
2018-02-07T01:56:44.168Z,74.40
2018-02-07T01:57:44.065Z,74.40
2018-02-07T01:58:43.993Z,74.68
2018-02-07T01:59:43.891Z,74.77
2018-02-07T02:00:43.812Z,74.68
2018-02-07T02:01:43.717Z,74.40
2018-02-07T02:02:43.627Z,74.87
2018-02-07T02:03:43.555Z,74.87
2018-02-07T02:04:43.469Z,74.96
2018-02-07T02:05:43.387Z,74.68
2018-02-07T02:06:43.320Z,75.15
2018-02-07T02:07:43.206Z,74.77
2018-02-07T02:08:43.113Z,74.77
2018-02-07T02:09:43.046Z,74.68
2018-02-07T02:10:42.936Z,74.96
2018-02-07T02:11:42.856Z,74.77
2018-02-07T02:12:42.771Z,74.87
2018-02-07T02:13:42.687Z,74.77
2018-02-07T02:14:42.604Z,74.87
2018-02-07T02:15:42.517Z,74.68
2018-02-07T02:16:42.426Z,74.40
2018-02-07T02:17:42.350Z,74.96
2018-02-07T02:18:42.252Z,75.24
2018-02-07T02:19:42.164Z,74.87
2018-02-07T02:20:42.086Z,74.96
2018-02-07T02:21:41.989Z,74.96
2018-02-07T02:22:41.916Z,74.49
2018-02-07T02:23:41.831Z,74.68
2018-02-07T02:24:41.741Z,74.77
2018-02-07T02:25:41.657Z,74.96
2018-02-07T02:26:41.565Z,74.87
2018-02-07T02:27:41.490Z,75.24
2018-02-07T02:28:41.395Z,75.05
2018-02-07T02:29:41.308Z,75.15
2018-02-07T02:30:41.222Z,75.15
2018-02-07T02:31:41.143Z,75.05
2018-02-07T02:32:41.055Z,75.05
2018-02-07T02:33:40.977Z,75.34
2018-02-07T02:34:40.890Z,75.43
2018-02-07T02:35:40.793Z,75.34
2018-02-07T02:36:40.713Z,74.68
2018-02-07T02:37:40.619Z,74.68
2018-02-07T02:38:40.543Z,75.24
2018-02-07T02:39:40.443Z,75.15
2018-02-07T02:40:40.352Z,75.43
2018-02-07T02:41:40.285Z,75.53
2018-02-07T02:42:40.196Z,75.34
2018-02-07T02:43:40.128Z,75.34
2018-02-07T02:44:40.026Z,75.43
2018-02-07T02:45:39.931Z,75.15
2018-02-07T02:46:39.845Z,75.62
2018-02-07T02:47:39.771Z,75.71
2018-02-07T02:48:39.668Z,76.00
2018-02-07T02:49:39.589Z,75.24
2018-02-07T02:50:39.493Z,75.62
2018-02-07T02:51:39.415Z,75.71
2018-02-07T02:52:39.337Z,75.81
2018-02-07T02:53:39.243Z,75.71
2018-02-07T02:54:39.176Z,76.00
2018-02-07T02:55:39.084Z,75.81
2018-02-07T02:56:38.981Z,75.43
2018-02-07T02:57:38.896Z,75.81
2018-02-07T02:58:38.821Z,76.38
2018-02-07T02:59:38.736Z,76.19
2018-02-07T03:00:38.650Z,76.09
2018-02-07T03:01:38.570Z,76.00
2018-02-07T03:02:38.471Z,76.00
2018-02-07T03:03:38.385Z,76.19
2018-02-07T03:04:38.292Z,76.00
2018-02-07T03:05:38.215Z,76.00
2018-02-07T03:06:38.119Z,76.00
2018-02-07T03:07:38.033Z,76.09
2018-02-07T03:08:37.958Z,76.09
2018-02-07T03:09:37.868Z,76.00
2018-02-07T03:10:37.785Z,75.90
2018-02-07T03:11:37.697Z,76.38
2018-02-07T03:12:37.623Z,76.38
2018-02-07T03:13:37.528Z,76.09
2018-02-07T03:14:37.435Z,76.28
2018-02-07T03:15:37.345Z,76.09
2018-02-07T03:16:37.275Z,76.19
2018-02-07T03:17:37.184Z,76.47
2018-02-07T03:18:37.102Z,77.04
2018-02-07T03:19:37.025Z,76.76
2018-02-07T03:20:36.922Z,76.28
2018-02-07T03:21:36.848Z,76.57
2018-02-07T03:22:36.749Z,76.47
2018-02-07T03:23:36.661Z,76.00
2018-02-07T03:24:36.574Z,76.19
2018-02-07T03:25:36.496Z,76.28
2018-02-07T03:26:36.413Z,76.66
2018-02-07T03:27:36.330Z,76.85
2018-02-07T03:28:36.254Z,76.57
2018-02-07T03:29:36.152Z,76.76
2018-02-07T03:30:36.060Z,76.76
2018-02-07T03:31:35.976Z,76.66
2018-02-07T03:32:35.892Z,76.38
2018-02-07T03:33:35.807Z,76.95
2018-02-07T03:34:35.720Z,76.47
2018-02-07T03:35:35.622Z,76.66
2018-02-07T03:36:35.559Z,76.28
2018-02-07T03:37:35.463Z,76.66
2018-02-07T03:38:35.376Z,76.57
2018-02-07T03:39:35.290Z,76.66
2018-02-07T03:40:35.203Z,76.47
2018-02-07T03:41:35.113Z,76.66
2018-02-07T03:42:35.026Z,76.57
2018-02-07T03:43:34.946Z,76.85
2018-02-07T03:44:34.853Z,77.04
2018-02-07T03:45:34.775Z,77.04
2018-02-07T03:46:34.691Z,76.66
2018-02-07T03:47:34.603Z,76.47
2018-02-07T03:48:34.512Z,76.66
2018-02-07T03:49:34.429Z,76.47
2018-02-07T03:50:34.342Z,76.66
2018-02-07T03:51:34.250Z,76.95
2018-02-07T03:52:34.170Z,76.47
2018-02-07T03:53:34.074Z,76.38
2018-02-07T03:54:34.001Z,76.66
2018-02-07T03:55:33.921Z,76.66
2018-02-07T03:56:33.826Z,76.57
2018-02-07T03:57:33.742Z,76.57
2018-02-07T03:58:33.651Z,76.66
2018-02-07T03:59:33.563Z,76.85
2018-02-07T04:00:33.483Z,77.32
2018-02-07T04:01:33.398Z,77.42
2018-02-07T04:02:33.303Z,77.51
2018-02-07T04:03:33.227Z,77.61
2018-02-07T04:04:33.137Z,77.61
2018-02-07T04:05:33.053Z,77.51
2018-02-07T04:06:32.966Z,77.51
2018-02-07T04:07:32.874Z,77.42
2018-02-07T04:08:32.802Z,77.23
2018-02-07T04:09:32.710Z,77.98
2018-02-07T04:10:32.632Z,78.08
2018-02-07T04:11:32.535Z,77.80
2018-02-07T04:12:32.453Z,77.51
2018-02-07T04:13:32.383Z,77.70
2018-02-07T04:14:32.275Z,77.61
2018-02-07T04:15:32.193Z,77.70
2018-02-07T04:16:32.106Z,77.61
2018-02-07T04:17:32.030Z,78.17
2018-02-07T04:18:31.932Z,78.08
2018-02-07T04:19:31.860Z,77.98
2018-02-07T04:20:31.754Z,78.08
2018-02-07T04:21:31.683Z,77.80
2018-02-07T04:22:31.590Z,77.70
2018-02-07T04:23:31.507Z,77.98
2018-02-07T04:24:31.425Z,77.61
2018-02-07T04:25:31.326Z,77.98
2018-02-07T04:26:31.246Z,78.08
2018-02-07T04:27:31.155Z,77.70
2018-02-07T04:28:31.082Z,77.89
2018-02-07T04:29:30.984Z,77.89
2018-02-07T04:30:30.914Z,77.98
2018-02-07T04:31:30.832Z,77.98
2018-02-07T04:32:30.734Z,78.17
2018-02-07T04:33:30.644Z,78.17
2018-02-07T04:34:30.556Z,77.89
2018-02-07T04:35:30.474Z,77.89
2018-02-07T04:36:30.378Z,77.70
2018-02-07T04:37:30.301Z,78.27
2018-02-07T04:38:30.213Z,77.61
2018-02-07T04:39:30.129Z,77.98
2018-02-07T04:40:30.059Z,78.17
2018-02-07T04:41:29.959Z,77.89
2018-02-07T04:42:29.893Z,78.17
2018-02-07T04:43:29.782Z,78.45
2018-02-07T04:44:29.692Z,77.98
2018-02-07T04:45:29.613Z,78.08
2018-02-07T04:46:29.532Z,77.70
2018-02-07T04:47:29.433Z,77.98
2018-02-07T04:48:29.360Z,78.17
2018-02-07T04:49:29.268Z,78.17
2018-02-07T04:50:29.183Z,77.70
2018-02-07T04:51:29.101Z,77.70
2018-02-07T04:52:29.005Z,78.17
2018-02-07T04:53:28.926Z,77.98
2018-02-07T04:54:28.829Z,77.80
2018-02-07T04:55:28.744Z,77.98
2018-02-07T04:56:28.678Z,78.27
2018-02-07T04:57:28.582Z,78.55
2018-02-07T04:58:28.502Z,78.36
2018-02-07T04:59:28.421Z,78.55
2018-02-07T05:00:28.334Z,78.83
2018-02-07T05:01:28.238Z,78.64
2018-02-07T05:02:28.156Z,78.64
2018-02-07T05:03:28.061Z,78.36
2018-02-07T05:04:27.990Z,78.64
2018-02-07T05:05:27.897Z,78.64
2018-02-07T05:06:27.815Z,78.17
2018-02-07T05:07:27.730Z,78.74
2018-02-07T05:08:27.633Z,78.64
2018-02-07T05:09:27.553Z,78.74
2018-02-07T05:10:27.460Z,78.64
2018-02-07T05:11:27.372Z,78.45
2018-02-07T05:12:27.292Z,78.64
2018-02-07T05:13:27.205Z,78.64
2018-02-07T05:14:27.127Z,78.64
2018-02-07T05:15:27.042Z,78.55
2018-02-07T05:16:26.946Z,78.55
2018-02-07T05:17:26.864Z,78.64
2018-02-07T05:18:26.772Z,78.36
2018-02-07T05:19:26.685Z,78.64
2018-02-07T05:20:26.617Z,79.02
2018-02-07T05:21:26.508Z,78.64
2018-02-07T05:22:26.435Z,78.64
2018-02-07T05:23:26.350Z,78.83
2018-02-07T05:24:26.257Z,78.74
2018-02-07T05:25:26.178Z,78.74
2018-02-07T05:26:26.082Z,78.74
2018-02-07T05:27:26.003Z,78.55
2018-02-07T05:28:25.914Z,78.64
2018-02-07T05:29:25.825Z,78.74
2018-02-07T05:30:25.744Z,78.45
2018-02-07T05:31:25.665Z,79.30
2018-02-07T05:32:25.575Z,79.02
2018-02-07T05:33:25.498Z,78.64
2018-02-07T05:34:25.413Z,78.74
2018-02-07T05:35:25.308Z,78.64
2018-02-07T05:36:25.230Z,78.64
2018-02-07T05:37:25.136Z,78.45
2018-02-07T05:38:25.067Z,78.64
2018-02-07T05:39:24.966Z,78.64
2018-02-07T05:40:24.889Z,78.74
2018-02-07T05:41:24.811Z,79.02
2018-02-07T05:42:24.720Z,78.92
2018-02-07T05:43:24.629Z,78.64
2018-02-07T05:44:24.537Z,78.83
2018-02-07T05:45:24.453Z,78.92
2018-02-07T05:46:24.360Z,78.45
2018-02-07T05:47:24.291Z,78.83
2018-02-07T05:48:24.190Z,78.74
2018-02-07T05:49:24.113Z,78.64
2018-02-07T05:50:24.031Z,79.30
2018-02-07T05:51:23.942Z,79.40
2018-02-07T05:52:23.852Z,79.30
2018-02-07T05:53:23.771Z,79.21
2018-02-07T05:54:23.673Z,79.30
2018-02-07T05:55:23.587Z,79.40
2018-02-07T05:56:23.520Z,79.40
2018-02-07T05:57:23.411Z,79.21
2018-02-07T05:58:23.345Z,79.49
2018-02-07T05:59:23.253Z,78.55
2018-02-07T06:00:23.162Z,78.64
2018-02-07T06:01:23.095Z,79.02
2018-02-07T06:02:22.990Z,78.83
2018-02-07T06:03:22.902Z,78.64
2018-02-07T06:04:22.826Z,78.55
2018-02-07T06:05:22.732Z,78.55
2018-02-07T06:06:22.642Z,78.64
2018-02-07T06:07:22.555Z,78.55
2018-02-07T06:08:22.487Z,79.02
2018-02-07T06:09:22.393Z,79.49
2018-02-07T06:10:22.304Z,78.83
2018-02-07T06:11:22.215Z,79.02
2018-02-07T06:12:22.148Z,79.30
2018-02-07T06:13:22.044Z,79.21
2018-02-07T06:14:21.959Z,79.30
2018-02-07T06:15:21.876Z,79.21
2018-02-07T06:16:21.791Z,79.40
2018-02-07T06:17:21.721Z,79.40
2018-02-07T06:18:21.619Z,79.21
2018-02-07T06:19:21.528Z,79.59
2018-02-07T06:20:21.449Z,79.49
2018-02-07T06:21:21.370Z,79.11
2018-02-07T06:22:21.271Z,79.30
2018-02-07T06:23:21.195Z,79.21
2018-02-07T06:24:21.091Z,79.30
2018-02-07T06:25:21.022Z,79.21
2018-02-07T06:26:20.918Z,79.30
2018-02-07T06:27:20.841Z,79.59
2018-02-07T06:28:20.768Z,79.97
2018-02-07T06:29:20.669Z,79.59
2018-02-07T06:30:20.582Z,79.68
2018-02-07T06:31:20.497Z,79.30
2018-02-07T06:32:20.404Z,79.11
2018-02-07T06:33:20.341Z,79.59
2018-02-07T06:34:20.232Z,79.78
2018-02-07T06:35:20.157Z,79.78
2018-02-07T06:36:20.072Z,79.40
2018-02-07T06:37:19.993Z,79.68
2018-02-07T06:38:19.895Z,79.02
2018-02-07T06:39:19.819Z,79.30
2018-02-07T06:40:19.716Z,79.68
2018-02-07T06:41:19.636Z,79.40
2018-02-07T06:42:19.549Z,79.59
2018-02-07T06:43:19.472Z,79.59
2018-02-07T06:44:19.388Z,79.49
2018-02-07T06:45:19.292Z,79.59
2018-02-07T06:46:19.221Z,79.49
2018-02-07T06:47:19.121Z,79.59
2018-02-07T06:48:19.031Z,79.78
2018-02-07T06:49:18.954Z,79.49
2018-02-07T06:50:18.874Z,79.59
2018-02-07T06:51:18.776Z,79.49
2018-02-07T06:52:18.699Z,79.40
2018-02-07T06:53:18.617Z,79.49
2018-02-07T06:54:18.522Z,79.40
2018-02-07T06:55:18.436Z,79.59
2018-02-07T06:56:18.348Z,79.68
2018-02-07T06:57:18.274Z,79.59
2018-02-07T06:58:18.172Z,79.87
2018-02-07T06:59:18.087Z,79.59
2018-02-07T07:00:18.031Z,79.49
2018-02-07T07:01:17.924Z,79.87
2018-02-07T07:02:17.849Z,79.78
2018-02-07T07:03:17.755Z,79.68
2018-02-07T07:04:17.660Z,80.15
2018-02-07T07:05:17.623Z,80.15
2018-02-07T07:06:17.484Z,79.59
2018-02-07T07:07:17.396Z,79.78
2018-02-07T07:08:17.324Z,79.68
2018-02-07T07:09:17.223Z,79.59
2018-02-07T07:10:17.152Z,79.21
2018-02-07T07:11:17.065Z,79.49
2018-02-07T07:12:16.972Z,79.40
2018-02-07T07:13:16.888Z,79.30
2018-02-07T07:14:16.794Z,79.02
2018-02-07T07:15:16.712Z,79.21
2018-02-07T07:16:16.624Z,79.40
2018-02-07T07:17:16.533Z,79.40
2018-02-07T07:18:16.450Z,79.59
2018-02-07T07:19:16.376Z,79.78
2018-02-07T07:20:16.285Z,79.68
2018-02-07T07:21:16.202Z,79.30
2018-02-07T07:22:16.112Z,79.40
2018-02-07T07:23:16.028Z,79.87
2018-02-07T07:24:15.941Z,79.87
2018-02-07T07:25:15.846Z,79.78
2018-02-07T07:26:15.765Z,79.87
2018-02-07T07:27:15.677Z,79.68
2018-02-07T07:28:15.597Z,79.59
2018-02-07T07:29:15.518Z,79.21
2018-02-07T07:30:15.425Z,79.87
2018-02-07T07:31:15.352Z,79.59
2018-02-07T07:32:15.253Z,79.40
2018-02-07T07:33:15.162Z,79.02
2018-02-07T07:34:15.083Z,79.25
2018-02-07T07:35:14.994Z,79.49
2018-02-07T07:36:14.904Z,79.53
2018-02-07T07:37:14.826Z,79.44
2018-02-07T07:38:14.736Z,79.25
2018-02-07T07:39:14.648Z,79.35
2018-02-07T07:40:14.569Z,79.25
2018-02-07T07:41:14.477Z,79.16
2018-02-07T07:42:14.397Z,78.97
2018-02-07T07:43:14.310Z,78.68
2018-02-07T07:44:14.226Z,78.68
2018-02-07T07:45:14.136Z,78.68
2018-02-07T07:46:14.052Z,78.78
2018-02-07T07:47:13.968Z,78.68
2018-02-07T07:48:13.882Z,78.97
2018-02-07T07:49:13.788Z,79.35
2018-02-07T07:50:13.704Z,79.53
2018-02-07T07:51:13.628Z,79.25
2018-02-07T07:52:13.524Z,79.25
2018-02-07T07:53:13.445Z,79.25
2018-02-07T07:54:13.354Z,78.87
2018-02-07T07:55:13.277Z,79.44
2018-02-07T07:56:13.196Z,79.16
2018-02-07T07:57:13.104Z,78.78
2018-02-07T07:58:13.049Z,78.87
2018-02-07T07:59:12.933Z,78.87
2018-02-07T08:00:12.839Z,78.68
2018-02-07T08:01:12.784Z,78.68
2018-02-07T08:02:12.677Z,78.59
2018-02-07T08:03:12.591Z,78.97
2018-02-07T08:04:12.531Z,78.68
2018-02-07T08:05:12.428Z,78.59
2018-02-07T08:06:12.332Z,79.35
2018-02-07T08:07:12.246Z,78.68
2018-02-07T08:08:12.154Z,78.78
2018-02-07T08:09:12.080Z,78.50
2018-02-07T08:10:11.996Z,78.78
2018-02-07T08:11:11.901Z,78.50
2018-02-07T08:12:11.831Z,78.87
2018-02-07T08:13:11.729Z,78.59
2018-02-07T08:14:11.651Z,78.59
2018-02-07T08:15:11.559Z,78.78
2018-02-07T08:16:11.480Z,78.68
2018-02-07T08:17:11.407Z,78.87
2018-02-07T08:18:11.308Z,79.06
2018-02-07T08:19:11.227Z,78.31
2018-02-07T08:20:11.131Z,78.68
2018-02-07T08:21:11.054Z,78.68
2018-02-07T08:22:10.962Z,78.50
2018-02-07T08:23:10.882Z,78.87
2018-02-07T08:24:10.790Z,78.87
2018-02-07T08:25:10.714Z,78.31
2018-02-07T08:26:10.634Z,78.87
2018-02-07T08:27:10.532Z,78.78
2018-02-07T08:28:10.454Z,78.50
2018-02-07T08:29:10.380Z,78.68
2018-02-07T08:30:10.286Z,78.50
2018-02-07T08:31:10.245Z,78.87
2018-02-07T08:32:10.155Z,78.68
2018-02-07T08:33:10.239Z,78.78
2018-02-07T08:34:10.104Z,78.68
2018-02-07T08:35:10.189Z,78.50
2018-02-07T08:36:10.097Z,78.21
2018-02-07T08:37:10.019Z,78.21
2018-02-07T08:38:09.858Z,78.12
2018-02-07T08:39:09.511Z,78.40
2018-02-07T08:40:09.433Z,78.06
2018-02-07T08:41:09.353Z,78.12
2018-02-07T08:42:09.256Z,78.50
2018-02-07T08:43:09.169Z,78.21
2018-02-07T08:44:09.088Z,77.83
2018-02-07T08:45:09.020Z,78.12
2018-02-07T08:46:08.918Z,78.40
2018-02-07T08:47:08.837Z,78.50
2018-02-07T08:48:08.746Z,78.78
2018-02-07T08:49:08.665Z,78.59
2018-02-07T08:50:08.582Z,78.68
2018-02-07T08:51:08.485Z,78.91
2018-02-07T08:52:08.440Z,78.21
2018-02-07T08:53:08.385Z,78.53
2018-02-07T08:54:08.263Z,78.34
2018-02-07T08:55:08.152Z,77.97
2018-02-07T08:56:08.070Z,78.25
2018-02-07T08:57:07.985Z,78.06
2018-02-07T08:58:07.896Z,77.87
2018-02-07T08:59:07.815Z,78.12
2018-02-07T09:00:07.736Z,78.16
2018-02-07T09:01:07.634Z,78.02
2018-02-07T09:02:07.554Z,78.31
2018-02-07T09:03:07.489Z,78.53
2018-02-07T09:04:07.386Z,78.16
2018-02-07T09:05:07.306Z,78.25
2018-02-07T09:06:07.212Z,78.16
2018-02-07T09:07:07.138Z,78.16
2018-02-07T09:08:07.052Z,78.25
2018-02-07T09:09:06.959Z,78.78
2018-02-07T09:10:06.886Z,78.12
2018-02-07T09:11:06.787Z,78.40
2018-02-07T09:12:06.709Z,78.68
2018-02-07T09:13:06.641Z,78.63
2018-02-07T09:14:06.536Z,78.87
2018-02-07T09:15:06.452Z,78.72
2018-02-07T09:16:06.368Z,78.78
2018-02-07T09:17:06.284Z,78.25
2018-02-07T09:18:06.213Z,78.63
2018-02-07T09:19:06.114Z,78.53
2018-02-07T09:20:06.027Z,78.25
2018-02-07T09:21:05.942Z,77.69
2018-02-07T09:22:05.888Z,78.25
2018-02-07T09:23:05.776Z,78.16
2018-02-07T09:24:05.694Z,78.16
2018-02-07T09:25:05.600Z,78.34
2018-02-07T09:26:05.518Z,77.87
2018-02-07T09:27:05.445Z,78.06
2018-02-07T09:28:05.353Z,78.44
2018-02-07T09:29:05.263Z,78.25
2018-02-07T09:30:05.192Z,78.44
2018-02-07T09:31:05.106Z,77.97
2018-02-07T09:32:05.021Z,78.06
2018-02-07T09:33:04.929Z,77.31
2018-02-07T09:34:04.844Z,77.50
2018-02-07T09:35:04.760Z,77.12
2018-02-07T09:36:04.678Z,77.21
2018-02-07T09:37:04.594Z,77.21
2018-02-07T09:38:04.501Z,76.55
2018-02-07T09:39:04.414Z,76.78
2018-02-07T09:40:04.340Z,76.36
2018-02-07T09:41:04.253Z,76.26
2018-02-07T09:42:04.171Z,76.26
2018-02-07T09:43:04.094Z,76.50
2018-02-07T09:44:03.990Z,76.17
2018-02-07T09:45:03.918Z,76.45
2018-02-07T09:46:03.828Z,76.26
2018-02-07T09:47:03.739Z,76.26
2018-02-07T09:48:03.659Z,76.93
2018-02-07T09:49:03.587Z,76.64
2018-02-07T09:50:03.492Z,77.02
2018-02-07T09:51:03.411Z,76.64
2018-02-07T09:52:03.319Z,76.64
2018-02-07T09:53:03.244Z,77.02
2018-02-07T09:54:03.153Z,77.02
2018-02-07T09:55:03.066Z,77.59
2018-02-07T09:56:02.984Z,77.31
2018-02-07T09:57:02.897Z,77.50
2018-02-07T09:58:02.816Z,77.40
2018-02-07T09:59:02.733Z,77.21
2018-02-07T10:00:02.645Z,77.31
2018-02-07T10:01:02.564Z,76.74
2018-02-07T10:02:02.483Z,76.36
2018-02-07T10:03:02.394Z,76.26
2018-02-07T10:04:02.303Z,76.50
2018-02-07T10:05:02.226Z,75.64
2018-02-07T10:06:02.142Z,75.26
2018-02-07T10:07:02.056Z,75.07
2018-02-07T10:08:01.973Z,75.07
2018-02-07T10:09:01.882Z,74.60
2018-02-07T10:10:01.806Z,74.98
2018-02-07T10:11:01.722Z,75.07
2018-02-07T10:12:01.630Z,75.26
2018-02-07T10:13:01.549Z,75.07
2018-02-07T10:14:01.466Z,75.26
2018-02-07T10:15:01.380Z,75.45
2018-02-07T10:16:01.301Z,74.79
2018-02-07T10:17:01.206Z,75.17
2018-02-07T10:18:01.126Z,74.79
2018-02-07T10:19:01.052Z,74.32
2018-02-07T10:20:00.958Z,74.41
2018-02-07T10:21:00.870Z,74.41
2018-02-07T10:22:00.792Z,73.75
2018-02-07T10:23:00.705Z,73.85
2018-02-07T10:24:00.621Z,73.85
2018-02-07T10:25:00.544Z,73.60
2018-02-07T10:26:00.461Z,73.75
2018-02-07T10:27:00.377Z,73.66
2018-02-07T10:28:00.295Z,72.66
2018-02-07T10:29:00.200Z,72.94
2018-02-07T10:30:00.112Z,72.62
2018-02-07T10:31:00.046Z,72.66
2018-02-07T10:31:59.963Z,72.18
2018-02-07T10:32:59.857Z,71.80
2018-02-07T10:33:59.774Z,71.90
2018-02-07T10:34:59.727Z,71.71
2018-02-07T10:35:59.606Z,71.23
2018-02-07T10:36:59.523Z,71.04
2018-02-07T10:37:59.448Z,70.48
2018-02-07T10:38:59.361Z,69.82
2018-02-07T10:39:59.274Z,69.72
2018-02-07T10:40:59.182Z,69.91
2018-02-07T10:41:59.125Z,69.91
2018-02-07T10:42:59.023Z,69.44
2018-02-07T10:43:58.937Z,68.96
2018-02-07T10:44:58.873Z,68.96
2018-02-07T10:45:58.775Z,69.15
2018-02-07T10:46:58.696Z,68.71
2018-02-07T10:47:58.600Z,68.90
2018-02-07T10:48:58.521Z,68.05
2018-02-07T10:49:58.471Z,67.68
2018-02-07T10:50:58.354Z,67.20
2018-02-07T10:51:58.275Z,67.30
2018-02-07T10:52:58.202Z,66.63
2018-02-07T10:53:58.096Z,66.73
2018-02-07T10:54:58.026Z,66.35
2018-02-07T10:55:57.950Z,66.86
2018-02-07T10:56:57.851Z,66.76
2018-02-07T10:57:57.777Z,66.09
2018-02-07T10:58:57.703Z,66.44
2018-02-07T10:59:57.623Z,66.53
2018-02-07T11:00:57.525Z,66.82
2018-02-07T11:01:57.434Z,67.30
2018-02-07T11:02:57.370Z,66.92
2018-02-07T11:03:57.280Z,66.73
2018-02-07T11:04:57.187Z,67.01
2018-02-07T11:05:57.125Z,66.82
2018-02-07T11:06:57.030Z,66.35
2018-02-07T11:07:56.938Z,66.28
2018-02-07T11:08:56.881Z,66.35
2018-02-07T11:09:56.776Z,66.63
2018-02-07T11:10:56.703Z,66.92
2018-02-07T11:11:56.627Z,66.38
2018-02-07T11:12:56.524Z,66.47
2018-02-07T11:13:56.457Z,66.00
2018-02-07T11:14:56.368Z,65.63
2018-02-07T11:15:56.279Z,65.34
2018-02-07T11:16:56.204Z,65.81
2018-02-07T11:17:56.113Z,65.06
2018-02-07T11:18:56.030Z,65.88
2018-02-07T11:19:55.955Z,65.69
2018-02-07T11:20:55.868Z,66.16
2018-02-07T11:21:55.791Z,65.97
2018-02-07T11:22:55.708Z,66.09
2018-02-07T11:23:55.624Z,65.91
2018-02-07T11:24:55.545Z,66.00
2018-02-07T11:25:55.460Z,66.00
2018-02-07T11:26:55.376Z,65.72
2018-02-07T11:27:55.329Z,65.06
2018-02-07T11:28:55.203Z,65.63
2018-02-07T11:29:55.128Z,65.53
2018-02-07T11:30:55.042Z,65.81
2018-02-07T11:31:54.963Z,64.96
2018-02-07T11:32:54.879Z,65.15
2018-02-07T11:33:54.789Z,65.06
2018-02-07T11:34:54.729Z,64.87
2018-02-07T11:35:54.639Z,64.42
2018-02-07T11:36:54.552Z,64.39
2018-02-07T11:37:54.473Z,63.85
2018-02-07T11:38:54.395Z,63.76
2018-02-07T11:39:54.302Z,62.82
2018-02-07T11:40:54.230Z,62.34
2018-02-07T11:41:54.156Z,61.80
2018-02-07T11:42:54.052Z,60.86
2018-02-07T11:43:53.980Z,60.10
2018-02-07T11:44:53.891Z,60.10
2018-02-07T11:45:53.823Z,60.10
2018-02-07T11:46:53.765Z,59.75
2018-02-07T11:47:53.654Z,58.61
2018-02-07T11:48:53.587Z,58.61
2018-02-07T11:49:53.504Z,57.85
2018-02-07T11:50:53.429Z,57.57
2018-02-07T11:51:53.334Z,57.03
2018-02-07T11:52:53.244Z,55.73
2018-02-07T11:53:53.176Z,55.13
2018-02-07T11:54:53.085Z,54.56
2018-02-07T11:55:53.002Z,55.67
2018-02-07T11:56:52.937Z,56.65
2018-02-07T11:57:52.871Z,55.86
2018-02-07T11:58:52.755Z,55.98
2018-02-07T11:59:52.687Z,56.62
2018-02-07T12:00:52.604Z,56.99
2018-02-07T12:01:52.521Z,56.84
2018-02-07T12:02:52.579Z,55.89
2018-02-07T12:03:52.361Z,56.40
2018-02-07T12:04:52.278Z,57.35
2018-02-07T12:05:52.211Z,58.01
2018-02-07T12:06:52.122Z,59.41
2018-02-07T12:07:52.031Z,59.81
2018-02-07T12:08:51.961Z,59.44
2018-02-07T12:09:51.895Z,58.99
2018-02-07T12:10:51.796Z,58.67
2018-02-07T12:11:51.727Z,59.05
2018-02-07T12:12:51.629Z,59.44
2018-02-07T12:13:51.560Z,59.72
2018-02-07T12:14:51.478Z,59.18
2018-02-07T12:15:51.394Z,58.48
2018-02-07T12:16:51.337Z,59.78
2018-02-07T12:17:51.236Z,60.25
2018-02-07T12:18:51.170Z,60.83
2018-02-07T12:19:51.076Z,61.61
2018-02-07T12:20:50.997Z,60.44
2018-02-07T12:21:50.915Z,61.49
2018-02-07T12:22:50.836Z,61.93
2018-02-07T12:23:50.758Z,62.72
2018-02-07T12:24:50.686Z,62.34
2018-02-07T12:25:50.585Z,61.87
2018-02-07T12:26:50.513Z,61.77
2018-02-07T12:27:50.436Z,61.87
2018-02-07T12:28:50.348Z,62.34
2018-02-07T12:29:50.268Z,61.52
2018-02-07T12:30:50.189Z,60.19
2018-02-07T12:31:50.112Z,58.70
2018-02-07T12:32:50.501Z,56.99
2018-02-07T12:33:49.947Z,57.57
2018-02-07T12:34:49.860Z,56.34
2018-02-07T12:35:49.786Z,56.78
2018-02-07T12:36:49.708Z,58.93
2018-02-07T12:37:49.625Z,60.06
2018-02-07T12:38:49.544Z,59.72
2018-02-07T12:39:49.462Z,58.61
2018-02-07T12:40:49.388Z,57.44
2018-02-07T12:41:49.309Z,58.14
2018-02-07T12:42:49.211Z,57.21
2018-02-07T12:43:49.155Z,55.79
2018-02-07T12:44:49.065Z,54.11
2018-02-07T12:45:48.975Z,52.56
2018-02-07T12:46:48.888Z,54.27
2018-02-07T12:47:48.813Z,54.27
2018-02-07T12:48:48.752Z,53.80
2018-02-07T12:49:48.937Z,54.18
2018-02-07T12:50:49.187Z,53.61
2018-02-07T12:51:48.629Z,52.87